Natick, MA (01760)

12:32 AM EST on January 31, 2015 (GMT -0500)
KMANATIC6 | Change Station
CLOSE
Current Station
Personal Weather Station
Location: Natick, MA
Elevation: 243 ft
Nearby Weather Stations
Active Advisory: Special Statement

Elev 243 ft 42.29 °N, 71.35 °W | Updated 8 minutes ago

Overcast
Overcast
16.8 °F
Feels Like 17 °F
N
1.0
Wind Variable Wind from WSW
Gusts 10.0 mph

Today
High -- | Low -- °F
--% Chance of Precip.
Yesterday
High -- | Low -- °F
Precip. -- in
7:00 AM 4:58 PM
Waxing Gibbous, 87% visible
Pressure 29.76 in
Visibility 8.0 miles
Clouds Overcast 5000 ft
Windchill 17 °F
Dew Point 7 °F
Humidity 66%
Rainfall 0.00 in
Snow Depth Not available.
UV 0 out of 12
Pollen .10 out of 12
Air Quality Not available.
Flu Activity Not available.
METAR KOWD 310453Z AUTO 30019G30KT 8SM -SN OVC050 M07/M14 A2976 RMK AO2 PK WND 29030/0444 SNE0357B38 SLP078 P0000 T10721144 400111072

More Conditions Fewer Conditions

Pressure 29.76 in
Visibility 8.0 miles
Clouds Overcast 5000 ft
Windchill 17 °F
Dew Point 7 °F
Humidity 66%
Rainfall 0.00 in
Snow Depth Not available.
UV 0 out of 12
Pollen .10 out of 12
Air Quality Not available.
Flu Activity Not available.
METAR KOWD 310453Z AUTO 30019G30KT 8SM -SN OVC050 M07/M14 A2976 RMK AO2 PK WND 29030/0444 SNE0357B38 SLP078 P0000 T10721144 400111072

More Conditions Fewer Conditions

10-Day Weather Forecast

Almanac

Astronomy

Jan. 31, 2015 Rise Set
Actual Time
Civil Twilight
Nautical Twilight
Astronomical Twilight
Moon
Length of Visible Light
Length of Day
Tomorrow will be .
, % of the Moon is Illuminated

Today's Extremes

State Highs State Lows

Community

WunderPhotos

Upload Photos

1,792,005 photos uploaded!

WunderBlogs® & News

Nearby

Air Quality

  Air Quality AQ Index Pollutant
Not available.

Snow Depth

Station Depth Elevation

Earthquake Activity

City Distance Mag. Time & Date
Minimum magnitude displayed is 2.5.

Coastal Water Temperatures

Place Temperature

Nearby Weather Stations